createdAt,value
2023-02-11T00:02:05.199Z,19.33
2023-02-11T00:04:32.033Z,16.33
2023-02-11T00:06:58.405Z,19.35
2023-02-11T00:09:24.790Z,16.30
2023-02-11T00:11:51.054Z,20.05
2023-02-11T00:14:17.334Z,13.02
2023-02-11T00:16:43.685Z,16.45
2023-02-11T00:19:09.988Z,15.63
2023-02-11T00:21:36.374Z,21.17
2023-02-11T00:24:02.730Z,20.27
2023-02-11T00:26:30.968Z,19.35
2023-02-11T00:28:57.419Z,16.83
2023-02-11T00:31:24.235Z,18.13
2023-02-11T00:33:50.910Z,14.02
2023-02-11T00:36:18.962Z,23.92
2023-02-11T00:38:45.922Z,16.35
2023-02-11T00:41:13.344Z,24.73
2023-02-11T00:43:40.282Z,22.23
2023-02-11T00:46:06.783Z,20.58
2023-02-11T00:48:33.490Z,16.90
2023-02-11T00:50:59.873Z,16.40
2023-02-11T00:53:26.269Z,23.55
2023-02-11T00:55:52.721Z,17.90
2023-02-11T00:58:19.155Z,18.70
2023-02-11T01:00:45.491Z,18.27
2023-02-11T01:03:11.830Z,25.45
2023-02-11T01:05:38.913Z,19.30
2023-02-11T01:08:05.439Z,20.80
2023-02-11T01:10:31.870Z,18.33
2023-02-11T01:12:58.471Z,26.08
2023-02-11T01:15:24.808Z,22.15
2023-02-11T01:17:51.142Z,20.30
2023-02-11T01:20:19.662Z,26.85
2023-02-11T01:22:46.066Z,19.33
2023-02-11T01:25:12.406Z,18.73
2023-02-11T01:27:38.779Z,21.95
2023-02-11T01:30:08.882Z,18.38
2023-02-11T01:32:35.460Z,20.88
2023-02-11T01:35:01.985Z,20.98
2023-02-11T01:37:28.276Z,21.58
2023-02-11T01:39:54.674Z,20.98
2023-02-11T01:42:22.804Z,19.45
2023-02-11T01:44:53.507Z,18.73
2023-02-11T01:47:20.904Z,18.77
2023-02-11T01:49:56.422Z,22.38
2023-02-11T01:52:34.900Z,19.55
2023-02-11T01:55:21.472Z,20.33
2023-02-11T01:57:50.673Z,20.35
2023-02-11T02:00:24.975Z,21.42
2023-02-11T02:03:03.276Z,23.75
2023-02-11T02:05:39.114Z,14.90
2023-02-11T02:08:11.442Z,19.17
2023-02-11T02:10:40.693Z,20.48
2023-02-11T02:13:07.122Z,18.75
2023-02-11T02:15:34.509Z,16.25
2023-02-11T02:18:03.836Z,22.90
2023-02-11T02:20:49.119Z,21.45
2023-02-11T02:23:21.226Z,21.38
2023-02-11T02:25:50.715Z,21.08
2023-02-11T02:28:23.276Z,13.40
2023-02-11T02:30:49.597Z,22.50
2023-02-11T02:33:31.001Z,21.33
2023-02-11T02:36:16.362Z,21.08
2023-02-11T02:38:55.613Z,21.98
2023-02-11T02:41:41.143Z,22.02
2023-02-11T02:44:08.297Z,22.02
2023-02-11T02:46:35.333Z,22.20
2023-02-11T02:49:02.190Z,21.70
2023-02-11T02:51:47.504Z,25.75
2023-02-11T02:54:13.892Z,22.92
2023-02-11T02:56:59.258Z,22.73
2023-02-11T02:59:25.510Z,21.02
2023-02-11T03:02:08.734Z,20.83
2023-02-11T03:04:52.822Z,18.48
2023-02-11T03:07:28.201Z,23.35
2023-02-11T03:10:05.522Z,20.42
2023-02-11T03:12:33.424Z,26.20
2023-02-11T03:15:01.445Z,23.30
2023-02-11T03:17:28.628Z,25.35
2023-02-11T03:19:55.170Z,24.73
2023-02-11T03:22:30.551Z,30.75
2023-02-11T03:24:56.947Z,21.48
2023-02-11T03:27:29.022Z,24.33
2023-02-11T03:30:15.633Z,27.30
2023-02-11T03:32:49.082Z,14.82
2023-02-11T03:35:19.800Z,21.08
2023-02-11T03:38:01.954Z,21.45
2023-02-11T03:40:32.099Z,26.40
2023-02-11T03:43:00.390Z,26.33
2023-02-11T03:45:27.513Z,27.92
2023-02-11T03:47:59.983Z,28.38
2023-02-11T03:50:27.397Z,35.80
2023-02-11T03:52:54.978Z,23.10
2023-02-11T03:55:23.010Z,27.83
2023-02-11T03:57:49.358Z,26.10
2023-02-11T04:00:15.805Z,27.50
2023-02-11T04:02:42.960Z,21.33
2023-02-11T04:05:10.162Z,28.60
2023-02-11T04:07:36.471Z,29.77
2023-02-11T04:10:03.189Z,31.52
2023-02-11T04:12:29.459Z,35.30
2023-02-11T04:14:55.864Z,29.65
2023-02-11T04:17:22.232Z,25.80
2023-02-11T04:19:48.564Z,38.30
2023-02-11T04:22:15.023Z,25.63
2023-02-11T04:24:43.948Z,28.77
2023-02-11T04:27:12.075Z,29.92
2023-02-11T04:29:38.434Z,28.13
2023-02-11T04:32:04.970Z,31.75
2023-02-11T04:34:31.872Z,31.25
2023-02-11T04:36:58.228Z,33.83
2023-02-11T04:39:24.532Z,27.50
2023-02-11T04:41:51.034Z,36.97
2023-02-11T04:44:17.474Z,43.45
2023-02-11T04:46:43.820Z,28.92
2023-02-11T04:49:12.751Z,32.45
2023-02-11T04:51:39.089Z,28.58
2023-02-11T04:54:05.465Z,36.85
2023-02-11T04:56:31.812Z,35.42
2023-02-11T04:58:58.106Z,32.55
2023-02-11T05:01:24.606Z,34.13
2023-02-11T05:03:51.173Z,27.85
2023-02-11T05:06:17.936Z,34.05
2023-02-11T05:08:44.289Z,28.58
2023-02-11T05:11:18.223Z,32.63
2023-02-11T05:13:44.757Z,32.10
2023-02-11T05:16:11.849Z,38.47
2023-02-11T05:18:38.808Z,32.83
2023-02-11T05:21:09.461Z,31.33
2023-02-11T05:23:36.450Z,38.45
2023-02-11T05:26:03.092Z,37.20
2023-02-11T05:28:29.846Z,38.92
2023-02-11T05:30:56.350Z,35.33
2023-02-11T05:33:22.814Z,36.47
2023-02-11T05:35:49.536Z,37.65
2023-02-11T05:38:16.445Z,37.03
2023-02-11T05:40:42.795Z,40.33
2023-02-11T05:43:09.076Z,43.05
2023-02-11T05:45:35.555Z,38.17
2023-02-11T05:48:01.932Z,35.95
2023-02-11T05:50:28.265Z,43.95
2023-02-11T05:52:54.627Z,42.85
2023-02-11T05:55:21.138Z,39.10
2023-02-11T05:57:47.537Z,44.90
2023-02-11T06:00:14.358Z,42.03
2023-02-11T06:02:40.757Z,40.95
2023-02-11T06:05:07.348Z,41.63
2023-02-11T06:07:33.683Z,41.72
2023-02-11T06:10:00.108Z,40.15
2023-02-11T06:12:27.234Z,45.13
2023-02-11T06:14:53.532Z,50.80
2023-02-11T06:17:19.828Z,40.88
2023-02-11T06:19:46.111Z,41.30
2023-02-11T06:22:12.429Z,38.40
2023-02-11T06:24:59.843Z,56.35
2023-02-11T06:27:25.174Z,38.83
2023-02-11T06:29:52.806Z,38.15
2023-02-11T06:32:39.597Z,44.70
2023-02-11T06:35:05.956Z,41.92
2023-02-11T06:37:33.608Z,47.40
2023-02-11T06:39:59.921Z,49.22
2023-02-11T06:42:26.312Z,47.90
2023-02-11T06:44:52.662Z,45.78
2023-02-11T06:47:19.021Z,41.83
2023-02-11T06:49:45.770Z,42.03
2023-02-11T06:52:12.095Z,47.97
2023-02-11T06:54:38.507Z,41.60
2023-02-11T06:57:04.837Z,46.60
2023-02-11T06:59:31.171Z,49.17
2023-02-11T07:01:57.573Z,45.80
2023-02-11T07:04:24.036Z,50.17
2023-02-11T07:06:50.343Z,49.72
2023-02-11T07:09:17.022Z,48.33
2023-02-11T07:11:43.382Z,54.35
2023-02-11T07:14:10.236Z,56.45
2023-02-11T07:16:36.873Z,57.22
2023-02-11T07:19:03.236Z,51.42
2023-02-11T07:21:29.631Z,51.08
2023-02-11T07:23:55.985Z,57.83
2023-02-11T07:26:23.247Z,52.10
2023-02-11T07:28:50.139Z,49.22
2023-02-11T07:31:17.907Z,44.35
2023-02-11T07:33:45.781Z,50.67
2023-02-11T07:36:13.158Z,46.90
2023-02-11T07:38:39.666Z,56.50
2023-02-11T07:41:07.519Z,49.63
2023-02-11T07:43:34.582Z,57.33
2023-02-11T07:46:20.449Z,45.58
2023-02-11T07:48:47.048Z,55.83
2023-02-11T07:51:18.108Z,56.22
2023-02-11T07:53:44.551Z,57.30
2023-02-11T07:56:12.036Z,54.92
2023-02-11T07:58:38.451Z,57.28
2023-02-11T08:01:09.642Z,64.25
2023-02-11T08:03:36.696Z,53.20
2023-02-11T08:06:05.735Z,49.33
2023-02-11T08:08:32.062Z,50.65
2023-02-11T08:10:58.357Z,56.30
2023-02-11T08:13:26.923Z,52.20
2023-02-11T08:15:53.281Z,53.97
2023-02-11T08:18:19.658Z,50.38
2023-02-11T08:20:46.027Z,50.28
2023-02-11T08:23:12.359Z,57.67
2023-02-11T08:25:38.644Z,49.28
2023-02-11T08:28:05.002Z,53.78
2023-02-11T08:30:31.347Z,51.47
2023-02-11T08:32:57.755Z,54.40
2023-02-11T08:35:26.058Z,54.47
2023-02-11T08:37:53.086Z,51.92
2023-02-11T08:40:20.125Z,56.45
2023-02-11T08:42:46.521Z,49.65
2023-02-11T08:45:12.858Z,49.30
2023-02-11T08:47:39.596Z,48.22
2023-02-11T08:50:06.119Z,47.35
2023-02-11T08:52:32.588Z,57.75
2023-02-11T08:55:01.520Z,57.08
2023-02-11T08:57:27.908Z,45.10
2023-02-11T08:59:54.266Z,49.10
2023-02-11T09:02:20.615Z,51.20
2023-02-11T09:04:46.968Z,47.80
2023-02-11T09:07:13.257Z,50.97
2023-02-11T09:09:39.589Z,47.70
2023-02-11T09:12:06.010Z,46.25
2023-02-11T09:14:32.306Z,53.63
2023-02-11T09:16:58.760Z,46.88
2023-02-11T09:19:25.102Z,46.25
2023-02-11T09:21:51.483Z,43.75
2023-02-11T09:24:18.756Z,45.85
2023-02-11T09:26:45.383Z,43.47
2023-02-11T09:29:11.854Z,50.85
2023-02-11T09:31:38.530Z,46.47
2023-02-11T09:34:06.011Z,41.75
2023-02-11T09:36:34.908Z,44.40
2023-02-11T09:42:05.956Z,41.25
2023-02-11T09:44:33.994Z,43.30
2023-02-11T09:47:05.892Z,43.65
2023-02-11T09:49:34.981Z,38.15
2023-02-11T09:52:24.627Z,47.75
2023-02-11T09:54:55.375Z,42.03
2023-02-11T09:57:28.602Z,43.15
2023-02-11T09:59:56.279Z,38.67
2023-02-11T10:02:27.553Z,45.35
2023-02-11T10:05:03.176Z,39.40
2023-02-11T10:07:52.969Z,41.22
2023-02-11T10:10:38.130Z,42.92
2023-02-11T10:13:13.620Z,41.90
2023-02-11T10:15:58.660Z,40.72
2023-02-11T10:18:46.361Z,45.20
2023-02-11T10:21:17.208Z,37.17
2023-02-11T10:26:15.299Z,29.95
2023-02-11T10:28:43.816Z,32.42
2023-02-11T10:31:30.635Z,35.90
2023-02-11T10:34:07.455Z,36.63
2023-02-11T10:36:34.991Z,37.22
2023-02-11T10:39:13.662Z,31.60
2023-02-11T10:41:43.256Z,31.13
2023-02-11T10:44:18.625Z,31.77
2023-02-11T10:46:45.205Z,29.92
2023-02-11T10:49:31.483Z,27.45
2023-02-11T10:52:12.639Z,22.88
2023-02-11T10:54:38.948Z,25.42
2023-02-11T10:57:05.273Z,23.58
2023-02-11T10:59:34.380Z,22.02
2023-02-11T11:02:01.752Z,22.65
2023-02-11T11:04:32.881Z,28.58
2023-02-11T11:07:17.613Z,25.98
2023-02-11T11:09:46.408Z,24.88
2023-02-11T11:12:31.221Z,25.38
2023-02-11T11:15:02.660Z,23.95
2023-02-11T11:17:29.621Z,27.92
2023-02-11T11:20:14.839Z,22.15
2023-02-11T11:22:41.860Z,25.67
2023-02-11T11:25:25.723Z,21.55
2023-02-11T11:27:54.111Z,25.23
2023-02-11T11:30:20.862Z,26.27
2023-02-11T11:32:47.301Z,25.52
2023-02-11T11:35:21.657Z,26.73
2023-02-11T11:37:53.423Z,18.50
2023-02-11T11:40:38.306Z,18.95
2023-02-11T11:43:07.433Z,26.42
2023-02-11T11:45:33.829Z,18.35
2023-02-11T11:48:03.382Z,19.52
2023-02-11T11:50:35.793Z,21.33
2023-02-11T11:53:07.657Z,20.40
2023-02-11T11:55:34.095Z,20.30
2023-02-11T11:58:00.608Z,17.90
2023-02-11T12:00:29.755Z,20.17
2023-02-11T12:03:02.378Z,20.67
2023-02-11T12:05:37.571Z,17.38
2023-02-11T12:08:15.228Z,17.40
2023-02-11T12:10:41.549Z,15.75
2023-02-11T12:13:13.750Z,18.13
2023-02-11T12:16:03.361Z,17.20
2023-02-11T12:18:38.712Z,15.63
2023-02-11T12:21:23.814Z,16.40
2023-02-11T12:23:59.696Z,18.63
2023-02-11T12:26:35.939Z,14.50
2023-02-11T12:29:02.254Z,16.75
2023-02-11T12:31:46.849Z,15.05
2023-02-11T12:34:15.958Z,15.98
2023-02-11T12:36:42.382Z,14.85
2023-02-11T12:39:29.010Z,14.30
2023-02-11T12:42:33.124Z,19.73
2023-02-11T12:45:06.872Z,14.70
2023-02-11T12:47:52.409Z,13.57
2023-02-11T12:50:24.905Z,17.52
2023-02-11T12:53:01.333Z,14.75
2023-02-11T12:55:29.872Z,16.35
2023-02-11T12:58:19.110Z,15.55
2023-02-11T13:00:49.139Z,15.15
2023-02-11T13:03:22.512Z,20.67
2023-02-11T13:06:26.610Z,24.95
2023-02-11T13:09:03.257Z,21.02
2023-02-11T13:11:36.344Z,21.10
2023-02-11T13:14:12.612Z,16.13
2023-02-11T13:16:46.709Z,13.30
2023-02-11T13:19:13.055Z,11.90
2023-02-11T13:22:08.573Z,11.30
2023-02-11T13:24:44.356Z,10.52
2023-02-11T13:27:15.278Z,11.13
2023-02-11T13:30:03.050Z,14.43
2023-02-11T13:32:50.740Z,14.27
2023-02-11T13:35:35.863Z,11.52
2023-02-11T13:38:03.376Z,11.43
2023-02-11T13:40:34.366Z,11.40
2023-02-11T13:43:02.448Z,9.23
2023-02-11T13:45:38.560Z,12.93
2023-02-11T13:48:06.650Z,12.68
2023-02-11T13:50:37.113Z,14.25
2023-02-11T13:53:04.900Z,12.07
2023-02-11T13:55:32.156Z,9.68
2023-02-11T13:58:07.651Z,9.48
2023-02-11T14:00:34.080Z,12.85
2023-02-11T14:03:39.424Z,11.25
2023-02-11T14:06:27.469Z,12.25
2023-02-11T14:09:09.139Z,9.20
2023-02-11T14:11:44.756Z,10.93
2023-02-11T14:14:15.829Z,9.43
2023-02-11T14:17:02.422Z,10.85
2023-02-11T14:19:36.484Z,12.48
2023-02-11T14:22:13.415Z,8.95
2023-02-11T14:24:45.400Z,10.55
2023-02-11T14:27:21.379Z,9.55
2023-02-11T14:29:47.735Z,10.48
2023-02-11T14:32:29.352Z,10.65
2023-02-11T14:35:07.885Z,13.43
2023-02-11T14:37:50.268Z,12.65
2023-02-11T14:40:32.029Z,13.13
2023-02-11T14:43:03.296Z,10.85
2023-02-11T14:45:31.053Z,10.55
2023-02-11T14:48:10.316Z,11.80
2023-02-11T14:50:42.949Z,11.98
2023-02-11T14:53:16.942Z,10.95
2023-02-11T14:55:44.648Z,12.85
2023-02-11T14:58:16.202Z,12.90
2023-02-11T15:00:58.098Z,10.65
2023-02-11T15:03:27.393Z,8.95
2023-02-11T15:06:14.027Z,9.18
2023-02-11T15:08:43.624Z,11.98
2023-02-11T15:11:12.132Z,9.57
2023-02-11T15:13:38.881Z,11.55
2023-02-11T15:16:06.865Z,13.10
2023-02-11T15:18:37.258Z,14.93
2023-02-11T15:21:04.020Z,11.48
2023-02-11T15:23:31.272Z,8.88
2023-02-11T15:25:58.079Z,14.05
2023-02-11T15:28:26.708Z,11.52
2023-02-11T15:30:57.278Z,10.77
2023-02-11T15:33:25.417Z,13.80
2023-02-11T15:35:51.963Z,11.95
2023-02-11T15:38:18.517Z,11.38
2023-02-11T15:40:54.645Z,12.25
2023-02-11T15:43:21.430Z,9.98
2023-02-11T15:46:01.735Z,11.10
2023-02-11T15:51:57.796Z,9.82
2023-02-11T15:54:26.742Z,13.32
2023-02-11T15:56:55.534Z,14.43
2023-02-11T15:59:41.262Z,11.32
2023-02-11T16:02:07.834Z,13.43
2023-02-11T16:04:34.495Z,11.82
2023-02-11T16:07:00.869Z,13.07
2023-02-11T16:09:31.741Z,10.52
2023-02-11T16:14:29.459Z,12.50
2023-02-11T16:16:58.666Z,11.73
2023-02-11T16:19:26.355Z,15.50
2023-02-11T16:21:53.508Z,16.98
2023-02-11T16:24:24.387Z,12.77
2023-02-11T16:29:23.907Z,12.45
2023-02-11T16:31:50.497Z,11.73
2023-02-11T16:34:19.126Z,13.63
2023-02-11T16:36:46.332Z,11.98
2023-02-11T16:39:13.076Z,12.25
2023-02-11T16:41:39.369Z,11.18
2023-02-11T16:44:05.705Z,13.27
2023-02-11T16:46:32.293Z,13.95
2023-02-11T16:49:05.781Z,13.52
2023-02-11T16:51:32.141Z,13.05
2023-02-11T16:53:58.466Z,13.45
2023-02-11T16:56:25.175Z,9.57
2023-02-11T16:58:51.571Z,11.45
2023-02-11T17:01:18.000Z,11.13
2023-02-11T17:03:45.594Z,15.32
2023-02-11T17:06:13.543Z,12.25
2023-02-11T17:08:42.982Z,13.20
2023-02-11T17:11:09.708Z,12.68
2023-02-11T17:13:36.693Z,17.73
2023-02-11T17:16:03.051Z,13.48
2023-02-11T17:18:29.831Z,13.20
2023-02-11T17:20:56.168Z,12.48
2023-02-11T17:23:22.492Z,14.25
2023-02-11T17:25:54.546Z,14.38
2023-02-11T17:28:21.419Z,13.48
2023-02-11T17:30:48.509Z,14.75
2023-02-11T17:33:14.832Z,13.90
2023-02-11T17:35:41.106Z,12.82
2023-02-11T17:38:07.510Z,13.23
2023-02-11T17:40:36.777Z,16.98
2023-02-11T17:43:03.597Z,14.43
2023-02-11T17:45:30.090Z,13.85
2023-02-11T17:47:56.380Z,13.95
2023-02-11T17:50:23.285Z,12.75
2023-02-11T17:52:49.906Z,15.23
2023-02-11T17:55:16.264Z,18.20
2023-02-11T17:57:42.640Z,17.20
2023-02-11T18:00:09.571Z,15.43
2023-02-11T18:02:35.977Z,14.73
2023-02-11T18:05:02.461Z,16.08
2023-02-11T18:07:30.587Z,12.90
2023-02-11T18:10:12.638Z,13.90
2023-02-11T18:12:39.086Z,15.82
2023-02-11T18:15:06.338Z,18.15
2023-02-11T18:17:33.094Z,15.05
2023-02-11T18:19:59.805Z,15.30
2023-02-11T18:22:26.262Z,14.85
2023-02-11T18:24:53.661Z,15.35
2023-02-11T18:27:20.451Z,15.25
2023-02-11T18:29:46.945Z,17.85
2023-02-11T18:32:13.788Z,14.93
2023-02-11T18:34:40.880Z,18.15
2023-02-11T18:37:07.299Z,18.00
2023-02-11T18:39:39.035Z,18.23
2023-02-11T18:42:08.754Z,17.70
2023-02-11T18:44:35.505Z,21.90
2023-02-11T18:47:02.044Z,21.25
2023-02-11T18:49:28.601Z,23.45
2023-02-11T18:51:55.294Z,21.63
2023-02-11T18:54:21.811Z,20.80
2023-02-11T18:56:48.267Z,17.23
2023-02-11T18:59:14.811Z,18.42
2023-02-11T19:01:43.347Z,19.75
2023-02-11T19:04:09.851Z,19.10
2023-02-11T19:06:37.379Z,15.93
2023-02-11T19:09:09.811Z,21.27
2023-02-11T19:11:53.821Z,18.00
2023-02-11T19:14:36.446Z,16.60
2023-02-11T19:17:04.163Z,19.67
2023-02-11T19:19:31.452Z,21.70
2023-02-11T19:21:58.732Z,17.17
2023-02-11T19:24:25.491Z,19.35
2023-02-11T19:26:52.807Z,38.00
2023-02-11T19:29:22.866Z,41.47
2023-02-11T19:31:49.996Z,33.05
2023-02-11T19:34:17.105Z,40.60
2023-02-11T19:36:43.570Z,39.30
2023-02-11T19:39:10.139Z,32.10
2023-02-11T19:41:44.774Z,25.33
2023-02-11T19:47:42.940Z,17.25
2023-02-11T19:50:33.202Z,15.87
2023-02-11T19:53:02.283Z,16.63
2023-02-11T19:55:28.841Z,15.70
2023-02-11T19:57:55.222Z,18.58
2023-02-11T20:00:21.728Z,17.65
2023-02-11T20:02:48.161Z,16.52
2023-02-11T20:05:14.497Z,21.35
2023-02-11T20:07:40.841Z,18.90
2023-02-11T20:10:08.044Z,16.52
2023-02-11T20:12:34.441Z,23.80
2023-02-11T20:15:00.948Z,17.95
2023-02-11T20:17:27.447Z,22.25
2023-02-11T20:19:53.761Z,23.60
2023-02-11T20:22:20.042Z,23.65
2023-02-11T20:24:46.455Z,28.60
2023-02-11T20:27:12.897Z,26.02
2023-02-11T20:29:39.865Z,28.45
2023-02-11T20:32:07.046Z,30.45
2023-02-11T20:34:33.525Z,33.17
2023-02-11T20:36:59.920Z,35.03
2023-02-11T20:39:26.737Z,26.05
2023-02-11T20:41:53.934Z,26.27
2023-02-11T20:44:22.295Z,23.20
2023-02-11T20:46:48.907Z,19.98
2023-02-11T20:49:16.639Z,25.13
2023-02-11T20:51:43.073Z,23.98
2023-02-11T20:54:17.882Z,19.85
2023-02-11T20:56:47.731Z,20.15
2023-02-11T20:59:14.369Z,23.27
2023-02-11T21:01:42.369Z,25.33
2023-02-11T21:04:13.712Z,24.55
2023-02-11T21:06:41.544Z,21.33
2023-02-11T21:09:08.579Z,21.48
2023-02-11T21:11:35.311Z,20.83
2023-02-11T21:14:02.345Z,18.67
2023-02-11T21:22:59.193Z,18.25
2023-02-11T21:25:25.527Z,19.65
2023-02-11T21:27:51.814Z,18.67
2023-02-11T21:30:18.842Z,21.13
2023-02-11T21:32:51.046Z,20.50
2023-02-11T21:35:17.464Z,20.83
2023-02-11T21:37:43.878Z,23.70
2023-02-11T21:40:12.617Z,20.88
2023-02-11T21:42:40.841Z,22.52
2023-02-11T21:45:08.952Z,23.30
2023-02-11T21:47:37.153Z,24.75
2023-02-11T21:50:04.586Z,21.75
2023-02-11T21:52:32.340Z,25.00
2023-02-11T21:54:58.863Z,20.60
2023-02-11T21:57:25.467Z,24.00
2023-02-11T22:00:16.907Z,22.30
2023-02-11T22:02:48.277Z,23.85
2023-02-11T22:05:18.385Z,23.27
2023-02-11T22:07:47.393Z,24.55
2023-02-11T22:10:14.495Z,24.25
2023-02-11T22:13:01.087Z,21.63
2023-02-11T22:15:39.272Z,22.15
2023-02-11T22:18:05.939Z,21.67
2023-02-11T22:20:34.872Z,21.85
2023-02-11T22:23:26.257Z,22.30
2023-02-11T22:29:21.439Z,24.52
2023-02-11T22:34:37.207Z,25.98
2023-02-11T22:37:12.685Z,22.38
2023-02-11T22:39:48.297Z,21.15
2023-02-11T22:42:27.095Z,24.65
2023-02-11T22:54:30.076Z,27.10
2023-02-11T23:02:49.057Z,25.40
2023-02-11T23:04:06.593Z,24.00
2023-02-11T23:05:28.012Z,22.15
2023-02-11T23:09:30.493Z,26.40
2023-02-11T23:28:21.152Z,21.02
2023-02-11T23:37:20.325Z,23.55
2023-02-11T23:43:51.329Z,26.60
2023-02-11T23:53:38.432Z,27.20
2023-02-11T23:56:33.851Z,24.65
2023-02-11T23:59:13.982Z,24.98
